Estación Meteorológica Peña el Pijo (Robertgarden) [ 02/03/23 04:15:35 CET ]

Fecha Hora Presion(HPa) Temp (°C) Humedad % Rocio (°C) Viento ( m/s) Direccion Lluvia 1Hora(mm) Lluvia 24H(mm) LLuvia Total(mm)
2012-Nov-13 01:01:19 1011.500 3.0 95 2.2         178.19
2012-Nov-13 02:01:52 1010.600 1.6 95 0.8         178.19
2012-Nov-13 03:08:18 1010.600 1.1 95 0.3         178.19
2012-Nov-13 04:05:22 1010.500 0.5 95 -0.2         178.19
2012-Nov-13 05:01:16 1010.200 0.1 95 -0.6         178.19
2012-Nov-13 06:01:17 1010.600 -0.1 95 -0.8         178.19
2012-Nov-13 07:01:17 1010.600 -0.5 95 -1.2         178.19
2012-Nov-13 08:01:12 1010.500 -0.4 95 -1.1         178.19
2012-Nov-13 09:01:15 1010.800 0.7 96 0.1         178.19
2012-Nov-13 10:01:19 1010.500 3.6 97 3.1         178.19
2012-Nov-13 11:01:16 1010.500 5.8 97 5.3         178.19
2012-Nov-13 12:01:16 1010.200 6.9 84 4.4         178.19
2012-Nov-13 13:01:14 1009.600 7.3 73 2.8         178.19
2012-Nov-13 14:01:18 1008.700 6.7 76 2.8         178.19
2012-Nov-13 15:01:17 1008.500 6.6 82 3.7         178.19
2012-Nov-13 16:01:14 1008.400 6.1 86 3.9         178.19
2012-Nov-13 17:01:12 1008.200 6.1 88 4.3         178.19
2012-Nov-13 18:01:13 1007.800 6.1 90 4.6         178.19
2012-Nov-13 19:01:17 1008.000 5.9 91 4.5         178.19
2012-Nov-13 20:01:11 1008.400 5.9 92 4.7         178.19
2012-Nov-13 21:01:14 1008.700 5.8 93 4.8         178.19
2012-Nov-13 22:01:17 1008.600 5.9 93 4.8         178.19
2012-Nov-13 23:01:13 1008.200 6.1 93 5.0         178.19

Temperatura Máxima:    Temperatura Mínima:
Presión Máxima:1011.500 Hpa    Presión Mínima:1007.800 Hpa


Volver